sensor_id;sensor_type;location;lat;lon;timestamp;temperature;humidity
65972;SHT31;52726;48.852;9.152;2023-12-22T00:01:20;7.44;87.65
65972;SHT31;52726;48.852;9.152;2023-12-22T00:03:45;7.37;88.37
65972;SHT31;52726;48.852;9.152;2023-12-22T00:06:11;7.32;88.10
65972;SHT31;52726;48.852;9.152;2023-12-22T00:08:37;7.32;88.09
65972;SHT31;52726;48.852;9.152;2023-12-22T00:11:02;7.27;88.37
65972;SHT31;52726;48.852;9.152;2023-12-22T00:13:28;7.26;88.53
65972;SHT31;52726;48.852;9.152;2023-12-22T00:15:53;7.24;88.94
65972;SHT31;52726;48.852;9.152;2023-12-22T00:18:18;7.23;89.51
65972;SHT31;52726;48.852;9.152;2023-12-22T00:20:44;7.19;90.28
65972;SHT31;52726;48.852;9.152;2023-12-22T00:23:09;7.27;91.13
65972;SHT31;52726;48.852;9.152;2023-12-22T00:25:35;7.43;91.60
65972;SHT31;52726;48.852;9.152;2023-12-22T00:28:00;7.47;92.38
65972;SHT31;52726;48.852;9.152;2023-12-22T00:30:25;7.35;91.82
65972;SHT31;52726;48.852;9.152;2023-12-22T00:32:51;7.30;91.78
65972;SHT31;52726;48.852;9.152;2023-12-22T00:35:16;7.16;92.47
65972;SHT31;52726;48.852;9.152;2023-12-22T00:37:41;7.20;91.20
65972;SHT31;52726;48.852;9.152;2023-12-22T00:40:07;7.11;91.56
65972;SHT31;52726;48.852;9.152;2023-12-22T00:42:34;7.19;91.34
65972;SHT31;52726;48.852;9.152;2023-12-22T00:45:00;7.21;91.19
65972;SHT31;52726;48.852;9.152;2023-12-22T00:47:25;7.16;91.81
65972;SHT31;52726;48.852;9.152;2023-12-22T00:49:50;7.19;91.40
65972;SHT31;52726;48.852;9.152;2023-12-22T00:52:16;7.28;90.90
65972;SHT31;52726;48.852;9.152;2023-12-22T00:54:41;7.34;90.88
65972;SHT31;52726;48.852;9.152;2023-12-22T00:57:06;7.23;91.59
65972;SHT31;52726;48.852;9.152;2023-12-22T00:59:32;7.17;91.98
65972;SHT31;52726;48.852;9.152;2023-12-22T01:01:57;7.20;91.99
65972;SHT31;52726;48.852;9.152;2023-12-22T01:04:22;7.17;92.50
65972;SHT31;52726;48.852;9.152;2023-12-22T01:06:48;7.19;92.02
65972;SHT31;52726;48.852;9.152;2023-12-22T01:09:13;7.19;92.02
65972;SHT31;52726;48.852;9.152;2023-12-22T01:11:40;7.20;92.04
65972;SHT31;52726;48.852;9.152;2023-12-22T01:14:05;7.19;92.04
65972;SHT31;52726;48.852;9.152;2023-12-22T01:16:32;7.10;92.60
65972;SHT31;52726;48.852;9.152;2023-12-22T01:18:57;7.10;91.85
65972;SHT31;52726;48.852;9.152;2023-12-22T01:21:23;7.13;91.20
65972;SHT31;52726;48.852;9.152;2023-12-22T01:23:48;7.17;91.09
65972;SHT31;52726;48.852;9.152;2023-12-22T01:26:13;7.20;90.78
65972;SHT31;52726;48.852;9.152;2023-12-22T01:28:39;7.26;90.39
65972;SHT31;52726;48.852;9.152;2023-12-22T01:31:04;7.26;90.53
65972;SHT31;52726;48.852;9.152;2023-12-22T01:33:29;7.31;89.38
65972;SHT31;52726;48.852;9.152;2023-12-22T01:35:55;7.28;89.75
65972;SHT31;52726;48.852;9.152;2023-12-22T01:38:20;7.35;88.66
65972;SHT31;52726;48.852;9.152;2023-12-22T01:40:46;7.32;88.76
65972;SHT31;52726;48.852;9.152;2023-12-22T01:43:11;7.40;86.91
65972;SHT31;52726;48.852;9.152;2023-12-22T01:45:38;7.44;86.59
65972;SHT31;52726;48.852;9.152;2023-12-22T01:48:04;7.43;86.26
65972;SHT31;52726;48.852;9.152;2023-12-22T01:50:29;7.38;86.26
65972;SHT31;52726;48.852;9.152;2023-12-22T01:52:54;7.37;86.08
65972;SHT31;52726;48.852;9.152;2023-12-22T01:55:20;7.34;85.54
65972;SHT31;52726;48.852;9.152;2023-12-22T01:57:46;7.38;84.19
65972;SHT31;52726;48.852;9.152;2023-12-22T02:00:12;7.38;83.67
65972;SHT31;52726;48.852;9.152;2023-12-22T02:02:38;7.35;83.45
65972;SHT31;52726;48.852;9.152;2023-12-22T02:05:06;7.34;83.02
65972;SHT31;52726;48.852;9.152;2023-12-22T02:07:34;7.28;83.97
65972;SHT31;52726;48.852;9.152;2023-12-22T02:09:59;7.34;82.80
65972;SHT31;52726;48.852;9.152;2023-12-22T02:12:25;7.32;82.93
65972;SHT31;52726;48.852;9.152;2023-12-22T02:14:50;7.27;83.70
65972;SHT31;52726;48.852;9.152;2023-12-22T02:17:25;7.19;83.72
65972;SHT31;52726;48.852;9.152;2023-12-22T02:19:51;7.19;83.93
65972;SHT31;52726;48.852;9.152;2023-12-22T02:22:16;7.16;83.94
65972;SHT31;52726;48.852;9.152;2023-12-22T02:24:42;7.13;84.17
65972;SHT31;52726;48.852;9.152;2023-12-22T02:27:25;7.09;84.30
65972;SHT31;52726;48.852;9.152;2023-12-22T02:30:09;7.09;84.01
65972;SHT31;52726;48.852;9.152;2023-12-22T02:32:38;7.04;84.65
65972;SHT31;52726;48.852;9.152;2023-12-22T02:35:09;7.07;84.28
65972;SHT31;52726;48.852;9.152;2023-12-22T02:37:36;7.06;84.53
65972;SHT31;52726;48.852;9.152;2023-12-22T02:40:02;7.11;84.26
65972;SHT31;52726;48.852;9.152;2023-12-22T02:42:29;7.09;84.40
65972;SHT31;52726;48.852;9.152;2023-12-22T02:44:59;7.07;84.13
65972;SHT31;52726;48.852;9.152;2023-12-22T02:47:24;7.03;84.61
65972;SHT31;52726;48.852;9.152;2023-12-22T02:49:50;7.06;84.68
65972;SHT31;52726;48.852;9.152;2023-12-22T02:52:15;7.06;84.68
65972;SHT31;52726;48.852;9.152;2023-12-22T02:54:41;7.04;84.82
65972;SHT31;52726;48.852;9.152;2023-12-22T02:57:09;7.04;84.82
65972;SHT31;52726;48.852;9.152;2023-12-22T02:59:36;7.09;84.57
65972;SHT31;52726;48.852;9.152;2023-12-22T03:02:02;7.17;84.10
65972;SHT31;52726;48.852;9.152;2023-12-22T03:04:27;7.16;84.34
65972;SHT31;52726;48.852;9.152;2023-12-22T03:06:52;7.17;84.39
65972;SHT31;52726;48.852;9.152;2023-12-22T03:09:17;7.23;83.88
65972;SHT31;52726;48.852;9.152;2023-12-22T03:11:43;7.28;83.92
65972;SHT31;52726;48.852;9.152;2023-12-22T03:14:09;7.30;83.85
65972;SHT31;52726;48.852;9.152;2023-12-22T03:16:35;7.26;84.05
65972;SHT31;52726;48.852;9.152;2023-12-22T03:19:00;7.26;83.63
65972;SHT31;52726;48.852;9.152;2023-12-22T03:21:25;7.32;83.12
65972;SHT31;52726;48.852;9.152;2023-12-22T03:23:51;7.40;82.38
65972;SHT31;52726;48.852;9.152;2023-12-22T03:26:16;7.44;82.26
65972;SHT31;52726;48.852;9.152;2023-12-22T03:28:41;7.47;81.81
65972;SHT31;52726;48.852;9.152;2023-12-22T03:31:06;7.44;81.49
65972;SHT31;52726;48.852;9.152;2023-12-22T03:33:33;7.48;81.32
65972;SHT31;52726;48.852;9.152;2023-12-22T03:35:58;7.50;81.32
65972;SHT31;52726;48.852;9.152;2023-12-22T03:38:26;7.50;80.98
65972;SHT31;52726;48.852;9.152;2023-12-22T03:40:52;7.55;80.61
65972;SHT31;52726;48.852;9.152;2023-12-22T03:43:17;7.48;81.20
65972;SHT31;52726;48.852;9.152;2023-12-22T03:45:42;7.48;81.23
65972;SHT31;52726;48.852;9.152;2023-12-22T03:48:08;7.47;81.11
65972;SHT31;52726;48.852;9.152;2023-12-22T03:50:33;7.41;81.49
65972;SHT31;52726;48.852;9.152;2023-12-22T03:52:58;7.41;81.58
65972;SHT31;52726;48.852;9.152;2023-12-22T03:55:24;7.40;81.38
65972;SHT31;52726;48.852;9.152;2023-12-22T03:57:49;7.37;82.35
65972;SHT31;52726;48.852;9.152;2023-12-22T04:00:15;7.14;85.05
65972;SHT31;52726;48.852;9.152;2023-12-22T04:02:41;6.76;88.15
65972;SHT31;52726;48.852;9.152;2023-12-22T04:05:07;6.45;90.64
65972;SHT31;52726;48.852;9.152;2023-12-22T04:07:32;6.27;91.89
65972;SHT31;52726;48.852;9.152;2023-12-22T04:09:57;6.16;92.87
65972;SHT31;52726;48.852;9.152;2023-12-22T04:12:22;6.10;93.74
65972;SHT31;52726;48.852;9.152;2023-12-22T04:14:48;6.11;93.84
65972;SHT31;52726;48.852;9.152;2023-12-22T04:17:13;6.13;93.88
65972;SHT31;52726;48.852;9.152;2023-12-22T04:19:38;6.16;93.48
65972;SHT31;52726;48.852;9.152;2023-12-22T04:22:04;6.20;92.48
65972;SHT31;52726;48.852;9.152;2023-12-22T04:24:29;6.25;91.75
65972;SHT31;52726;48.852;9.152;2023-12-22T04:26:54;6.28;91.98
65972;SHT31;52726;48.852;9.152;2023-12-22T04:29:20;6.34;91.14
65972;SHT31;52726;48.852;9.152;2023-12-22T04:31:45;6.51;89.73
65972;SHT31;52726;48.852;9.152;2023-12-22T04:34:13;6.55;89.00
65972;SHT31;52726;48.852;9.152;2023-12-22T04:36:39;6.68;87.87
65972;SHT31;52726;48.852;9.152;2023-12-22T04:39:04;6.76;87.01
65972;SHT31;52726;48.852;9.152;2023-12-22T04:41:29;6.75;87.46
65972;SHT31;52726;48.852;9.152;2023-12-22T04:43:55;6.75;87.27
65972;SHT31;52726;48.852;9.152;2023-12-22T04:46:20;6.83;86.46
65972;SHT31;52726;48.852;9.152;2023-12-22T04:48:45;6.83;86.45
65972;SHT31;52726;48.852;9.152;2023-12-22T04:51:11;6.86;86.31
65972;SHT31;52726;48.852;9.152;2023-12-22T04:53:36;6.85;86.13
65972;SHT31;52726;48.852;9.152;2023-12-22T04:56:01;6.93;85.56
65972;SHT31;52726;48.852;9.152;2023-12-22T04:58:27;6.86;86.10
65972;SHT31;52726;48.852;9.152;2023-12-22T05:00:52;6.86;86.43
65972;SHT31;52726;48.852;9.152;2023-12-22T05:03:17;6.88;85.87
65972;SHT31;52726;48.852;9.152;2023-12-22T05:05:43;6.88;86.05
65972;SHT31;52726;48.852;9.152;2023-12-22T05:08:08;6.92;85.57
65972;SHT31;52726;48.852;9.152;2023-12-22T05:10:33;6.99;85.14
65972;SHT31;52726;48.852;9.152;2023-12-22T05:12:58;6.99;85.48
65972;SHT31;52726;48.852;9.152;2023-12-22T05:15:24;7.04;85.11
65972;SHT31;52726;48.852;9.152;2023-12-22T05:17:49;7.01;85.41
65972;SHT31;52726;48.852;9.152;2023-12-22T05:20:14;7.03;85.11
65972;SHT31;52726;48.852;9.152;2023-12-22T05:22:40;6.99;85.55
65972;SHT31;52726;48.852;9.152;2023-12-22T05:25:06;6.97;85.49
65972;SHT31;52726;48.852;9.152;2023-12-22T05:27:31;6.99;85.14
65972;SHT31;52726;48.852;9.152;2023-12-22T05:29:57;7.03;85.04
65972;SHT31;52726;48.852;9.152;2023-12-22T05:32:27;7.10;84.44
65972;SHT31;52726;48.852;9.152;2023-12-22T05:34:52;6.99;86.47
65972;SHT31;52726;48.852;9.152;2023-12-22T05:37:17;6.90;86.89
65972;SHT31;52726;48.852;9.152;2023-12-22T05:39:43;6.82;87.82
65972;SHT31;52726;48.852;9.152;2023-12-22T05:42:09;6.79;87.69
65972;SHT31;52726;48.852;9.152;2023-12-22T05:44:34;6.75;87.69
65972;SHT31;52726;48.852;9.152;2023-12-22T05:47:00;6.83;86.63
65972;SHT31;52726;48.852;9.152;2023-12-22T05:49:25;6.90;86.50
65972;SHT31;52726;48.852;9.152;2023-12-22T05:51:51;6.96;85.86
65972;SHT31;52726;48.852;9.152;2023-12-22T05:54:16;6.95;85.63
65972;SHT31;52726;48.852;9.152;2023-12-22T05:56:44;7.13;83.95
65972;SHT31;52726;48.852;9.152;2023-12-22T05:59:09;7.27;83.29
65972;SHT31;52726;48.852;9.152;2023-12-22T06:01:35;7.27;83.32
65972;SHT31;52726;48.852;9.152;2023-12-22T06:04:01;7.32;82.77
65972;SHT31;52726;48.852;9.152;2023-12-22T06:06:27;7.34;82.45
65972;SHT31;52726;48.852;9.152;2023-12-22T06:08:53;7.32;82.26
65972;SHT31;52726;48.852;9.152;2023-12-22T06:11:18;7.47;81.45
65972;SHT31;52726;48.852;9.152;2023-12-22T06:13:43;7.37;82.26
65972;SHT31;52726;48.852;9.152;2023-12-22T06:16:13;7.44;81.50
65972;SHT31;52726;48.852;9.152;2023-12-22T06:18:39;7.48;81.44
65972;SHT31;52726;48.852;9.152;2023-12-22T06:21:04;7.47;82.22
65972;SHT31;52726;48.852;9.152;2023-12-22T06:23:30;7.50;81.52
65972;SHT31;52726;48.852;9.152;2023-12-22T06:25:55;7.47;81.81
65972;SHT31;52726;48.852;9.152;2023-12-22T06:28:21;7.44;81.84
65972;SHT31;52726;48.852;9.152;2023-12-22T06:30:46;7.41;81.96
65972;SHT31;52726;48.852;9.152;2023-12-22T06:33:12;7.41;81.60
65972;SHT31;52726;48.852;9.152;2023-12-22T06:35:38;7.41;81.92
65972;SHT31;52726;48.852;9.152;2023-12-22T06:38:05;7.46;81.55
65972;SHT31;52726;48.852;9.152;2023-12-22T06:40:32;7.43;81.63
65972;SHT31;52726;48.852;9.152;2023-12-22T06:42:57;7.47;81.16
65972;SHT31;52726;48.852;9.152;2023-12-22T06:45:22;7.52;81.04
65972;SHT31;52726;48.852;9.152;2023-12-22T06:47:48;7.47;81.75
65972;SHT31;52726;48.852;9.152;2023-12-22T06:50:13;7.47;81.36
65972;SHT31;52726;48.852;9.152;2023-12-22T06:52:38;7.43;81.80
65972;SHT31;52726;48.852;9.152;2023-12-22T06:55:05;7.46;81.26
65972;SHT31;52726;48.852;9.152;2023-12-22T06:57:30;7.47;81.35
65972;SHT31;52726;48.852;9.152;2023-12-22T06:59:56;7.43;81.56
65972;SHT31;52726;48.852;9.152;2023-12-22T07:02:21;7.43;81.90
65972;SHT31;52726;48.852;9.152;2023-12-22T07:07:36;7.47;82.21
65972;SHT31;52726;48.852;9.152;2023-12-22T07:10:02;7.44;82.67
65972;SHT31;52726;48.852;9.152;2023-12-22T07:12:27;7.38;83.01
65972;SHT31;52726;48.852;9.152;2023-12-22T07:14:53;7.47;82.62
65972;SHT31;52726;48.852;9.152;2023-12-22T07:17:19;7.43;83.27
65972;SHT31;52726;48.852;9.152;2023-12-22T07:19:44;7.43;83.12
65972;SHT31;52726;48.852;9.152;2023-12-22T07:22:10;7.38;83.53
65972;SHT31;52726;48.852;9.152;2023-12-22T07:24:35;7.35;83.87
65972;SHT31;52726;48.852;9.152;2023-12-22T07:27:00;7.31;84.01
65972;SHT31;52726;48.852;9.152;2023-12-22T07:29:26;7.38;84.13
65972;SHT31;52726;48.852;9.152;2023-12-22T07:31:51;7.30;84.51
65972;SHT31;52726;48.852;9.152;2023-12-22T07:34:16;7.32;84.38
65972;SHT31;52726;48.852;9.152;2023-12-22T07:36:42;7.34;84.17
65972;SHT31;52726;48.852;9.152;2023-12-22T07:39:08;7.32;84.35
65972;SHT31;52726;48.852;9.152;2023-12-22T07:41:34;7.41;83.63
65972;SHT31;52726;48.852;9.152;2023-12-22T07:43:59;7.40;84.15
65972;SHT31;52726;48.852;9.152;2023-12-22T07:46:26;7.35;84.42
65972;SHT31;52726;48.852;9.152;2023-12-22T07:48:53;7.38;84.15
65972;SHT31;52726;48.852;9.152;2023-12-22T07:51:18;7.37;84.18
65972;SHT31;52726;48.852;9.152;2023-12-22T07:53:44;7.35;84.33
65972;SHT31;52726;48.852;9.152;2023-12-22T07:56:09;7.40;84.35
65972;SHT31;52726;48.852;9.152;2023-12-22T07:58:36;7.30;85.92
65972;SHT31;52726;48.852;9.152;2023-12-22T08:01:02;7.23;87.04
65972;SHT31;52726;48.852;9.152;2023-12-22T08:03:28;7.09;88.37
65972;SHT31;52726;48.852;9.152;2023-12-22T08:05:53;6.93;89.01
65972;SHT31;52726;48.852;9.152;2023-12-22T08:08:18;6.88;90.18
65972;SHT31;52726;48.852;9.152;2023-12-22T08:10:44;6.79;90.36
65972;SHT31;52726;48.852;9.152;2023-12-22T08:13:09;6.80;90.17
65972;SHT31;52726;48.852;9.152;2023-12-22T08:15:34;6.72;91.50
65972;SHT31;52726;48.852;9.152;2023-12-22T08:18:00;6.68;91.87
65972;SHT31;52726;48.852;9.152;2023-12-22T08:20:25;6.68;91.90
65972;SHT31;52726;48.852;9.152;2023-12-22T08:22:50;6.61;92.23
65972;SHT31;52726;48.852;9.152;2023-12-22T08:25:16;6.55;92.98
65972;SHT31;52726;48.852;9.152;2023-12-22T08:27:45;6.55;93.04
65972;SHT31;52726;48.852;9.152;2023-12-22T08:30:10;6.53;93.08
65972;SHT31;52726;48.852;9.152;2023-12-22T08:32:36;6.49;93.67
65972;SHT31;52726;48.852;9.152;2023-12-22T08:35:01;6.51;93.05
65972;SHT31;52726;48.852;9.152;2023-12-22T08:37:28;6.49;94.07
65972;SHT31;52726;48.852;9.152;2023-12-22T08:39:53;6.44;94.59
65972;SHT31;52726;48.852;9.152;2023-12-22T08:42:18;6.51;93.85
65972;SHT31;52726;48.852;9.152;2023-12-22T08:44:44;6.53;93.52
65972;SHT31;52726;48.852;9.152;2023-12-22T08:47:09;6.53;93.64
65972;SHT31;52726;48.852;9.152;2023-12-22T08:49:35;6.61;93.47
65972;SHT31;52726;48.852;9.152;2023-12-22T08:52:00;6.65;93.22
65972;SHT31;52726;48.852;9.152;2023-12-22T08:54:26;6.73;92.17
65972;SHT31;52726;48.852;9.152;2023-12-22T08:56:52;6.85;91.80
65972;SHT31;52726;48.852;9.152;2023-12-22T08:59:18;6.93;90.22
65972;SHT31;52726;48.852;9.152;2023-12-22T09:01:43;6.99;89.59
65972;SHT31;52726;48.852;9.152;2023-12-22T09:04:10;7.06;88.84
65972;SHT31;52726;48.852;9.152;2023-12-22T09:06:36;7.16;87.97
65972;SHT31;52726;48.852;9.152;2023-12-22T09:09:02;7.17;88.03
65972;SHT31;52726;48.852;9.152;2023-12-22T09:11:28;7.19;88.22
65972;SHT31;52726;48.852;9.152;2023-12-22T09:13:54;7.28;87.48
65972;SHT31;52726;48.852;9.152;2023-12-22T09:16:23;7.30;86.93
65972;SHT31;52726;48.852;9.152;2023-12-22T09:18:49;7.41;85.63
65972;SHT31;52726;48.852;9.152;2023-12-22T09:21:15;7.41;85.01
65972;SHT31;52726;48.852;9.152;2023-12-22T09:23:44;7.44;85.21
65972;SHT31;52726;48.852;9.152;2023-12-22T09:26:14;7.48;85.59
65972;SHT31;52726;48.852;9.152;2023-12-22T09:28:41;7.44;85.44
65972;SHT31;52726;48.852;9.152;2023-12-22T09:31:07;7.44;84.97
65972;SHT31;52726;48.852;9.152;2023-12-22T09:33:32;7.48;84.50
65972;SHT31;52726;48.852;9.152;2023-12-22T09:35:58;7.47;84.38
65972;SHT31;52726;48.852;9.152;2023-12-22T09:38:23;7.52;83.75
65972;SHT31;52726;48.852;9.152;2023-12-22T09:40:49;7.57;83.42
65972;SHT31;52726;48.852;9.152;2023-12-22T09:43:15;7.64;83.08
65972;SHT31;52726;48.852;9.152;2023-12-22T09:45:41;7.64;83.47
65972;SHT31;52726;48.852;9.152;2023-12-22T09:48:08;7.72;81.91
65972;SHT31;52726;48.852;9.152;2023-12-22T09:50:36;7.69;83.27
65972;SHT31;52726;48.852;9.152;2023-12-22T09:53:03;7.68;82.91
65972;SHT31;52726;48.852;9.152;2023-12-22T09:55:31;7.69;82.75
65972;SHT31;52726;48.852;9.152;2023-12-22T09:57:57;7.69;83.06
65972;SHT31;52726;48.852;9.152;2023-12-22T10:00:24;7.69;82.91
65972;SHT31;52726;48.852;9.152;2023-12-22T10:02:52;7.74;83.12
65972;SHT31;52726;48.852;9.152;2023-12-22T10:05:18;7.75;82.85
65972;SHT31;52726;48.852;9.152;2023-12-22T10:07:45;7.82;82.31
65972;SHT31;52726;48.852;9.152;2023-12-22T10:10:11;7.78;82.90
65972;SHT31;52726;48.852;9.152;2023-12-22T10:12:38;7.81;82.09
65972;SHT31;52726;48.852;9.152;2023-12-22T10:15:08;7.87;81.15
65972;SHT31;52726;48.852;9.152;2023-12-22T10:17:35;7.90;81.37
65972;SHT31;52726;48.852;9.152;2023-12-22T10:20:01;7.93;81.25
65972;SHT31;52726;48.852;9.152;2023-12-22T10:22:28;7.96;80.75
65972;SHT31;52726;48.852;9.152;2023-12-22T10:24:53;8.02;80.25
65972;SHT31;52726;48.852;9.152;2023-12-22T10:27:19;8.00;80.63
65972;SHT31;52726;48.852;9.152;2023-12-22T10:29:55;8.02;80.33
65972;SHT31;52726;48.852;9.152;2023-12-22T10:32:21;8.07;80.39
65972;SHT31;52726;48.852;9.152;2023-12-22T10:34:48;8.13;80.21
65972;SHT31;52726;48.852;9.152;2023-12-22T10:37:13;8.16;80.68
65972;SHT31;52726;48.852;9.152;2023-12-22T10:39:39;8.12;81.29
65972;SHT31;52726;48.852;9.152;2023-12-22T10:42:05;8.12;81.99
65972;SHT31;52726;48.852;9.152;2023-12-22T10:44:31;8.12;81.90
65972;SHT31;52726;48.852;9.152;2023-12-22T10:46:56;8.16;82.13
65972;SHT31;52726;48.852;9.152;2023-12-22T10:49:22;8.17;82.65
65972;SHT31;52726;48.852;9.152;2023-12-22T10:51:48;8.17;82.65
65972;SHT31;52726;48.852;9.152;2023-12-22T10:54:14;8.20;82.14
65972;SHT31;52726;48.852;9.152;2023-12-22T10:56:40;8.20;82.50
65972;SHT31;52726;48.852;9.152;2023-12-22T10:59:06;8.24;82.86
65972;SHT31;52726;48.852;9.152;2023-12-22T11:01:32;8.23;82.99
65972;SHT31;52726;48.852;9.152;2023-12-22T11:04:01;8.16;83.77
65972;SHT31;52726;48.852;9.152;2023-12-22T11:06:29;8.16;84.59
65972;SHT31;52726;48.852;9.152;2023-12-22T11:08:56;8.13;84.73
65972;SHT31;52726;48.852;9.152;2023-12-22T11:11:32;8.10;84.77
65972;SHT31;52726;48.852;9.152;2023-12-22T11:13:59;8.12;85.04
65972;SHT31;52726;48.852;9.152;2023-12-22T11:16:27;8.09;85.44
65972;SHT31;52726;48.852;9.152;2023-12-22T11:18:54;8.07;85.60
65972;SHT31;52726;48.852;9.152;2023-12-22T11:21:24;8.02;86.21
65972;SHT31;52726;48.852;9.152;2023-12-22T11:23:50;8.02;86.51
65972;SHT31;52726;48.852;9.152;2023-12-22T11:26:18;7.96;86.66
65972;SHT31;52726;48.852;9.152;2023-12-22T11:28:45;7.92;87.55
65972;SHT31;52726;48.852;9.152;2023-12-22T11:31:11;7.90;87.17
65972;SHT31;52726;48.852;9.152;2023-12-22T11:33:39;7.93;87.05
65972;SHT31;52726;48.852;9.152;2023-12-22T11:36:07;7.95;86.40
65972;SHT31;52726;48.852;9.152;2023-12-22T11:38:33;7.97;86.78
65972;SHT31;52726;48.852;9.152;2023-12-22T11:41:00;7.99;86.65
65972;SHT31;52726;48.852;9.152;2023-12-22T11:43:26;7.96;86.48
65972;SHT31;52726;48.852;9.152;2023-12-22T11:45:52;7.92;87.01
65972;SHT31;52726;48.852;9.152;2023-12-22T11:48:17;7.87;87.30
65972;SHT31;52726;48.852;9.152;2023-12-22T11:50:43;7.85;87.82
65972;SHT31;52726;48.852;9.152;2023-12-22T11:53:22;7.74;88.62
65972;SHT31;52726;48.852;9.152;2023-12-22T11:56:05;7.69;89.63
65972;SHT31;52726;48.852;9.152;2023-12-22T11:58:46;7.62;89.90
65972;SHT31;52726;48.852;9.152;2023-12-22T12:01:22;7.59;89.53
65972;SHT31;52726;48.852;9.152;2023-12-22T12:03:52;7.61;87.97
65972;SHT31;52726;48.852;9.152;2023-12-22T12:08:55;7.62;88.24
65972;SHT31;52726;48.852;9.152;2023-12-22T12:11:21;7.61;88.22
65972;SHT31;52726;48.852;9.152;2023-12-22T12:13:47;7.62;87.80
65972;SHT31;52726;48.852;9.152;2023-12-22T12:16:14;7.62;87.81
65972;SHT31;52726;48.852;9.152;2023-12-22T12:18:41;7.65;88.41
65972;SHT31;52726;48.852;9.152;2023-12-22T12:21:08;7.61;88.66
65972;SHT31;52726;48.852;9.152;2023-12-22T12:23:34;7.61;89.04
65972;SHT31;52726;48.852;9.152;2023-12-22T12:26:00;7.61;89.19
65972;SHT31;52726;48.852;9.152;2023-12-22T12:28:28;7.64;89.13
65972;SHT31;52726;48.852;9.152;2023-12-22T12:31:00;7.62;89.32
65972;SHT31;52726;48.852;9.152;2023-12-22T12:33:27;7.62;89.43
65972;SHT31;52726;48.852;9.152;2023-12-22T12:35:54;7.64;89.41
65972;SHT31;52726;48.852;9.152;2023-12-22T12:38:54;7.64;89.76
65972;SHT31;52726;48.852;9.152;2023-12-22T12:41:40;7.62;89.40
65972;SHT31;52726;48.852;9.152;2023-12-22T12:44:07;7.62;89.60
65972;SHT31;52726;48.852;9.152;2023-12-22T12:46:35;7.64;89.45
65972;SHT31;52726;48.852;9.152;2023-12-22T12:49:08;7.68;89.38
65972;SHT31;52726;48.852;9.152;2023-12-22T12:51:42;7.76;89.17
65972;SHT31;52726;48.852;9.152;2023-12-22T12:54:09;7.83;89.28
65972;SHT31;52726;48.852;9.152;2023-12-22T12:56:42;7.85;89.29
65972;SHT31;52726;48.852;9.152;2023-12-22T13:01:45;8.05;88.93
65972;SHT31;52726;48.852;9.152;2023-12-22T13:04:11;8.10;89.16
65972;SHT31;52726;48.852;9.152;2023-12-22T13:09:10;8.37;88.43
65972;SHT31;52726;48.852;9.152;2023-12-22T13:11:36;8.60;87.72
65972;SHT31;52726;48.852;9.152;2023-12-22T13:14:02;8.73;87.51
65972;SHT31;52726;48.852;9.152;2023-12-22T13:16:27;8.83;87.33
65972;SHT31;52726;48.852;9.152;2023-12-22T13:18:59;8.91;87.10
65972;SHT31;52726;48.852;9.152;2023-12-22T13:21:25;8.96;86.89
65972;SHT31;52726;48.852;9.152;2023-12-22T13:24:17;8.95;87.39
65972;SHT31;52726;48.852;9.152;2023-12-22T13:26:43;8.98;87.32
65972;SHT31;52726;48.852;9.152;2023-12-22T13:29:09;9.00;87.65
65972;SHT31;52726;48.852;9.152;2023-12-22T13:31:41;9.16;86.60
65972;SHT31;52726;48.852;9.152;2023-12-22T13:34:11;9.15;86.67
65972;SHT31;52726;48.852;9.152;2023-12-22T13:36:37;9.15;86.86
65972;SHT31;52726;48.852;9.152;2023-12-22T13:39:07;9.19;86.86
65972;SHT31;52726;48.852;9.152;2023-12-22T13:41:38;9.19;86.66
65972;SHT31;52726;48.852;9.152;2023-12-22T13:44:06;9.18;86.97
65972;SHT31;52726;48.852;9.152;2023-12-22T13:46:31;9.19;87.04
65972;SHT31;52726;48.852;9.152;2023-12-22T13:48:58;9.22;86.83
65972;SHT31;52726;48.852;9.152;2023-12-22T13:51:23;9.18;87.05
65972;SHT31;52726;48.852;9.152;2023-12-22T13:53:49;9.16;87.00
65972;SHT31;52726;48.852;9.152;2023-12-22T13:56:15;9.22;86.40
65972;SHT31;52726;48.852;9.152;2023-12-22T13:58:44;9.20;86.95
65972;SHT31;52726;48.852;9.152;2023-12-22T14:01:15;9.20;86.85
65972;SHT31;52726;48.852;9.152;2023-12-22T14:03:44;9.26;86.61
65972;SHT31;52726;48.852;9.152;2023-12-22T14:06:11;9.23;86.81
65972;SHT31;52726;48.852;9.152;2023-12-22T14:08:39;9.20;87.16
65972;SHT31;52726;48.852;9.152;2023-12-22T14:11:05;9.20;87.19
65972;SHT31;52726;48.852;9.152;2023-12-22T14:13:30;9.20;87.15
65972;SHT31;52726;48.852;9.152;2023-12-22T14:15:56;9.22;86.73
65972;SHT31;52726;48.852;9.152;2023-12-22T14:18:22;9.22;87.14
65972;SHT31;52726;48.852;9.152;2023-12-22T14:20:47;9.19;87.11
65972;SHT31;52726;48.852;9.152;2023-12-22T14:23:12;9.26;86.74
65972;SHT31;52726;48.852;9.152;2023-12-22T14:25:42;9.26;86.73
65972;SHT31;52726;48.852;9.152;2023-12-22T14:28:07;9.24;86.61
65972;SHT31;52726;48.852;9.152;2023-12-22T14:30:33;9.37;86.32
65972;SHT31;52726;48.852;9.152;2023-12-22T14:32:59;9.40;86.31
65972;SHT31;52726;48.852;9.152;2023-12-22T14:35:24;9.38;86.21
65972;SHT31;52726;48.852;9.152;2023-12-22T14:37:50;9.37;86.53
65972;SHT31;52726;48.852;9.152;2023-12-22T14:40:15;9.37;86.54
65972;SHT31;52726;48.852;9.152;2023-12-22T14:42:40;9.37;86.33
65972;SHT31;52726;48.852;9.152;2023-12-22T14:45:06;9.43;86.23
65972;SHT31;52726;48.852;9.152;2023-12-22T14:47:31;9.40;86.36
65972;SHT31;52726;48.852;9.152;2023-12-22T14:49:57;9.37;86.44
65972;SHT31;52726;48.852;9.152;2023-12-22T14:52:31;9.36;86.51
65972;SHT31;52726;48.852;9.152;2023-12-22T14:54:58;9.30;87.08
65972;SHT31;52726;48.852;9.152;2023-12-22T14:57:23;9.29;86.79
65972;SHT31;52726;48.852;9.152;2023-12-22T14:59:49;9.30;86.39
65972;SHT31;52726;48.852;9.152;2023-12-22T15:02:14;9.29;86.71
65972;SHT31;52726;48.852;9.152;2023-12-22T15:04:40;9.33;86.10
65972;SHT31;52726;48.852;9.152;2023-12-22T15:07:05;9.33;86.10
65972;SHT31;52726;48.852;9.152;2023-12-22T15:09:30;9.29;86.51
65972;SHT31;52726;48.852;9.152;2023-12-22T15:11:56;9.29;86.67
65972;SHT31;52726;48.852;9.152;2023-12-22T15:14:21;9.30;86.61
65972;SHT31;52726;48.852;9.152;2023-12-22T15:16:49;9.24;86.89
65972;SHT31;52726;48.852;9.152;2023-12-22T15:19:17;9.22;87.35
65972;SHT31;52726;48.852;9.152;2023-12-22T15:21:42;9.18;87.56
65972;SHT31;52726;48.852;9.152;2023-12-22T15:24:11;9.15;87.74
65972;SHT31;52726;48.852;9.152;2023-12-22T15:26:36;9.20;87.71
65972;SHT31;52726;48.852;9.152;2023-12-22T15:29:05;9.23;87.38
65972;SHT31;52726;48.852;9.152;2023-12-22T15:31:30;9.22;87.41
65972;SHT31;52726;48.852;9.152;2023-12-22T15:33:56;9.24;86.79
65972;SHT31;52726;48.852;9.152;2023-12-22T15:36:22;9.24;86.76
65972;SHT31;52726;48.852;9.152;2023-12-22T15:38:48;9.27;86.85
65972;SHT31;52726;48.852;9.152;2023-12-22T15:41:14;9.20;87.48
65972;SHT31;52726;48.852;9.152;2023-12-22T15:43:41;9.18;88.00
65972;SHT31;52726;48.852;9.152;2023-12-22T15:46:07;9.15;87.55
65972;SHT31;52726;48.852;9.152;2023-12-22T15:48:33;9.10;87.63
65972;SHT31;52726;48.852;9.152;2023-12-22T15:51:05;9.16;86.75